createdAt,value
2023-04-10T00:00:45.761Z,14.87
2023-04-10T00:03:14.153Z,10.68
2023-04-10T00:05:42.318Z,11.05
2023-04-10T00:08:10.551Z,12.27
2023-04-10T00:10:38.814Z,11.07
2023-04-10T00:13:08.402Z,11.32
2023-04-10T00:15:36.426Z,12.55
2023-04-10T00:18:04.678Z,10.32
2023-04-10T00:20:32.860Z,11.48
2023-04-10T00:23:00.899Z,17.50
2023-04-10T00:25:29.341Z,19.67
2023-04-10T00:27:57.331Z,19.67
2023-04-10T00:30:26.742Z,11.50
2023-04-10T00:32:55.140Z,17.08
2023-04-10T00:35:23.289Z,10.43
2023-04-10T00:37:51.436Z,16.52
2023-04-10T00:40:20.096Z,10.55
2023-04-10T00:42:50.064Z,9.98
2023-04-10T00:45:20.450Z,11.40
2023-04-10T00:47:50.331Z,11.18
2023-04-10T00:50:18.785Z,12.95
2023-04-10T00:52:46.996Z,13.65
2023-04-10T00:55:15.929Z,13.20
2023-04-10T00:57:46.316Z,16.08
2023-04-10T01:00:15.445Z,13.55
2023-04-10T01:02:44.053Z,20.08
2023-04-10T01:05:14.263Z,17.58
2023-04-10T01:07:55.505Z,15.23
2023-04-10T01:10:31.690Z,14.55
2023-04-10T01:13:09.818Z,17.58
2023-04-10T01:15:45.102Z,17.37
2023-04-10T01:18:20.484Z,17.85
2023-04-10T01:20:50.135Z,12.00
2023-04-10T01:23:44.365Z,13.48
2023-04-10T01:26:14.530Z,10.93
2023-04-10T01:29:01.393Z,12.07
2023-04-10T01:31:38.541Z,11.50
2023-04-10T01:34:10.624Z,9.38
2023-04-10T01:36:46.885Z,7.18
2023-04-10T01:39:18.321Z,7.80
2023-04-10T01:41:48.996Z,8.82
2023-04-10T01:44:22.611Z,5.75
2023-04-10T01:46:51.563Z,6.00
2023-04-10T01:49:20.871Z,5.45
2023-04-10T01:51:50.354Z,9.90
2023-04-10T01:54:19.755Z,10.98
2023-04-10T01:56:48.143Z,7.82
2023-04-10T01:59:18.307Z,9.63
2023-04-10T02:01:46.960Z,9.25
2023-04-10T02:04:15.641Z,9.27
2023-04-10T02:06:52.567Z,7.60
2023-04-10T02:09:32.154Z,3.62
2023-04-10T02:12:05.767Z,4.93
2023-04-10T02:14:39.456Z,7.25
2023-04-10T02:17:09.358Z,8.43
2023-04-10T02:19:39.644Z,14.70
2023-04-10T02:22:08.722Z,17.62
2023-04-10T02:24:36.799Z,12.23
2023-04-10T02:27:05.401Z,12.95
2023-04-10T02:29:34.988Z,16.60
2023-04-10T02:32:04.945Z,12.88
2023-04-10T02:34:33.104Z,14.77
2023-04-10T02:37:01.095Z,15.82
2023-04-10T02:39:30.295Z,13.48
2023-04-10T02:41:58.601Z,10.65
2023-04-10T02:44:27.097Z,18.52
2023-04-10T02:46:56.600Z,16.85
2023-04-10T02:49:25.033Z,13.90
2023-04-10T02:51:53.025Z,13.93
2023-04-10T02:54:21.782Z,17.25
2023-04-10T02:56:50.076Z,14.95
2023-04-10T02:59:18.090Z,13.20
2023-04-10T03:01:47.984Z,15.30
2023-04-10T03:04:17.942Z,15.35
2023-04-10T03:06:46.411Z,16.33
2023-04-10T03:09:14.492Z,15.02
2023-04-10T03:11:42.999Z,17.35
2023-04-10T03:14:11.155Z,14.50
2023-04-10T03:16:39.377Z,15.38
2023-04-10T03:19:07.650Z,13.10
2023-04-10T03:21:37.054Z,12.30
2023-04-10T03:24:06.111Z,17.05
2023-04-10T03:26:34.713Z,16.35
2023-04-10T03:29:02.872Z,14.40
2023-04-10T03:31:31.247Z,14.93
2023-04-10T03:33:59.932Z,15.80
2023-04-10T03:36:28.430Z,15.77
2023-04-10T03:38:57.736Z,15.80
2023-04-10T03:41:26.425Z,15.73
2023-04-10T03:43:54.814Z,15.70
2023-04-10T03:46:23.423Z,14.25
2023-04-10T03:48:54.183Z,16.95
2023-04-10T03:51:24.512Z,18.25
2023-04-10T03:53:53.408Z,20.80
2023-04-10T03:56:23.059Z,21.35
2023-04-10T03:58:51.111Z,19.30
2023-04-10T04:01:22.168Z,13.23
2023-04-10T04:03:55.979Z,18.85
2023-04-10T04:06:25.635Z,20.30
2023-04-10T04:08:54.396Z,16.70
2023-04-10T04:11:24.332Z,21.92
2023-04-10T04:13:53.024Z,16.40
2023-04-10T04:16:24.751Z,17.10
2023-04-10T04:18:52.955Z,17.58
2023-04-10T04:21:21.191Z,18.08
2023-04-10T04:23:49.741Z,17.25
2023-04-10T04:26:25.063Z,16.92
2023-04-10T04:28:53.789Z,16.83
2023-04-10T04:31:22.118Z,21.55
2023-04-10T04:33:50.305Z,16.12
2023-04-10T04:36:21.274Z,16.42
2023-04-10T04:38:52.882Z,16.17
2023-04-10T04:41:25.651Z,16.73
2023-04-10T04:43:55.957Z,15.73
2023-04-10T04:46:24.643Z,14.80
2023-04-10T04:48:53.127Z,15.05
2023-04-10T04:51:21.521Z,14.98
2023-04-10T04:53:50.013Z,19.67
2023-04-10T04:56:22.704Z,21.02
2023-04-10T04:58:52.509Z,16.95
2023-04-10T05:01:22.264Z,17.70
2023-04-10T05:03:52.053Z,14.70
2023-04-10T05:06:21.691Z,21.62
2023-04-10T05:08:50.086Z,18.90
2023-04-10T05:11:19.841Z,17.65
2023-04-10T05:13:52.189Z,17.73
2023-04-10T05:16:23.199Z,16.77
2023-04-10T05:18:51.934Z,17.33
2023-04-10T05:21:20.312Z,18.08
2023-04-10T05:23:49.651Z,20.25
2023-04-10T05:26:18.213Z,19.08
2023-04-10T05:28:47.440Z,20.95
2023-04-10T05:31:17.071Z,17.08
2023-04-10T05:33:45.899Z,20.50
2023-04-10T05:36:14.419Z,17.73
2023-04-10T05:38:42.960Z,17.90
2023-04-10T05:41:11.983Z,18.67
2023-04-10T05:43:39.976Z,19.40
2023-04-10T05:46:08.375Z,22.23
2023-04-10T05:48:40.189Z,17.65
2023-04-10T05:51:11.340Z,16.45
2023-04-10T05:53:39.370Z,19.90
2023-04-10T05:56:12.270Z,22.50
2023-04-10T05:58:40.769Z,20.10
2023-04-10T06:01:09.026Z,18.77
2023-04-10T06:03:39.259Z,21.80
2023-04-10T06:06:08.856Z,20.83
2023-04-10T06:08:36.942Z,21.58
2023-04-10T06:11:05.469Z,19.40
2023-04-10T06:13:36.112Z,19.35
2023-04-10T06:16:04.435Z,24.40
2023-04-10T06:18:32.783Z,15.68
2023-04-10T06:21:02.715Z,20.98
2023-04-10T06:23:31.010Z,24.77
2023-04-10T06:25:59.590Z,24.10
2023-04-10T06:28:27.971Z,20.15
2023-04-10T06:30:56.360Z,22.75
2023-04-10T06:33:29.333Z,20.75
2023-04-10T06:35:58.326Z,19.05
2023-04-10T06:38:28.114Z,21.67
2023-04-10T06:40:55.990Z,18.08
2023-04-10T06:43:23.914Z,19.70
2023-04-10T06:45:52.075Z,22.00
2023-04-10T06:48:20.427Z,22.40
2023-04-10T06:50:48.412Z,18.95
2023-04-10T06:53:16.600Z,25.23
2023-04-10T06:55:45.892Z,21.98
2023-04-10T06:58:13.945Z,24.48
2023-04-10T07:00:42.308Z,20.75
2023-04-10T07:03:10.392Z,21.12
2023-04-10T07:05:40.127Z,22.40
2023-04-10T07:08:10.539Z,19.87
2023-04-10T07:10:39.531Z,20.35
2023-04-10T07:13:08.888Z,20.98
2023-04-10T07:15:37.054Z,22.55
2023-04-10T07:18:07.791Z,20.37
2023-04-10T07:20:35.844Z,20.17
2023-04-10T07:23:04.086Z,19.17
2023-04-10T07:25:32.151Z,16.90
2023-04-10T07:28:00.135Z,19.70
2023-04-10T07:30:29.939Z,19.12
2023-04-10T07:32:58.335Z,18.12
2023-04-10T07:35:27.116Z,19.80
2023-04-10T07:37:55.640Z,15.23
2023-04-10T07:40:23.626Z,18.20
2023-04-10T07:42:53.806Z,17.70
2023-04-10T07:45:22.335Z,19.12
2023-04-10T07:47:51.709Z,17.83
2023-04-10T07:50:19.902Z,19.25
2023-04-10T07:52:48.194Z,18.27
2023-04-10T07:55:16.426Z,18.15
2023-04-10T07:57:44.468Z,17.55
2023-04-10T08:00:14.295Z,17.73
2023-04-10T08:02:43.885Z,17.95
2023-04-10T08:05:13.403Z,20.00
2023-04-10T08:07:41.508Z,18.10
2023-04-10T08:10:10.744Z,16.70
2023-04-10T08:12:38.958Z,19.02
2023-04-10T08:15:08.665Z,17.42
2023-04-10T08:17:37.009Z,17.98
2023-04-10T08:20:06.583Z,16.77
2023-04-10T08:22:35.975Z,20.30
2023-04-10T08:25:04.658Z,17.70
2023-04-10T08:27:32.726Z,17.15
2023-04-10T08:30:00.840Z,15.23
2023-04-10T08:32:30.604Z,15.45
2023-04-10T08:34:58.820Z,17.15
2023-04-10T08:37:27.536Z,14.77
2023-04-10T08:39:57.298Z,16.30
2023-04-10T08:42:25.939Z,16.33
2023-04-10T08:44:55.272Z,18.52
2023-04-10T08:47:28.846Z,17.55
2023-04-10T08:49:58.734Z,16.25
2023-04-10T08:52:28.802Z,18.12
2023-04-10T08:55:00.699Z,16.00
2023-04-10T08:57:30.514Z,16.80
2023-04-10T09:00:04.278Z,16.00
2023-04-10T09:02:42.838Z,17.12
2023-04-10T09:05:13.444Z,15.63
2023-04-10T09:07:42.106Z,13.38
2023-04-10T09:10:11.763Z,14.32
2023-04-10T09:12:49.732Z,15.15
2023-04-10T09:15:18.188Z,12.60
2023-04-10T09:17:57.416Z,18.70
2023-04-10T09:20:27.829Z,14.30
2023-04-10T09:22:55.969Z,14.13
2023-04-10T09:25:33.982Z,12.73
2023-04-10T09:28:04.682Z,13.23
2023-04-10T09:30:41.099Z,15.15
2023-04-10T09:33:23.669Z,16.10
2023-04-10T09:35:51.847Z,8.93
2023-04-10T09:38:22.339Z,12.45
2023-04-10T09:40:53.639Z,12.68
2023-04-10T09:43:28.015Z,15.50
2023-04-10T09:45:57.422Z,13.48
2023-04-10T09:48:27.618Z,11.98
2023-04-10T09:50:55.652Z,9.98
2023-04-10T09:53:23.748Z,10.82
2023-04-10T09:55:53.362Z,12.20
2023-04-10T09:58:22.134Z,9.75
2023-04-10T10:00:50.577Z,10.82
2023-04-10T10:03:21.116Z,13.25
2023-04-10T10:05:53.479Z,12.65
2023-04-10T10:08:23.836Z,11.65
2023-04-10T10:10:55.903Z,9.32
2023-04-10T10:13:29.289Z,9.68
2023-04-10T10:16:07.503Z,10.55
2023-04-10T10:18:45.087Z,9.40
2023-04-10T10:21:16.607Z,11.10
2023-04-10T10:23:46.322Z,9.63
2023-04-10T10:26:16.295Z,9.93
2023-04-10T10:28:47.587Z,10.38
2023-04-10T10:31:17.598Z,9.68
2023-04-10T10:33:47.101Z,9.23
2023-04-10T10:36:17.101Z,10.30
2023-04-10T10:38:54.707Z,9.82
2023-04-10T10:41:29.837Z,8.73
2023-04-10T10:44:09.657Z,8.85
2023-04-10T10:46:43.994Z,7.87
2023-04-10T10:49:13.950Z,9.30
2023-04-10T10:51:46.709Z,8.07
2023-04-10T10:54:29.056Z,6.95
2023-04-10T10:56:58.618Z,6.45
2023-04-10T10:59:58.297Z,7.47
2023-04-10T11:02:27.244Z,7.05
2023-04-10T11:04:55.949Z,6.97
2023-04-10T11:08:02.978Z,7.82
2023-04-10T11:11:01.576Z,9.15
2023-04-10T11:13:31.055Z,8.93
2023-04-10T11:16:01.387Z,8.18
2023-04-10T11:19:13.353Z,7.93
2023-04-10T11:22:03.540Z,8.38
2023-04-10T11:24:59.574Z,8.98
2023-04-10T11:27:46.421Z,9.93
2023-04-10T11:30:42.279Z,11.40
2023-04-10T11:33:18.899Z,10.07
2023-04-10T11:35:47.416Z,10.40
2023-04-10T11:38:18.169Z,8.23
2023-04-10T11:41:02.915Z,9.60
2023-04-10T11:43:31.776Z,9.65
2023-04-10T11:46:03.095Z,11.38
2023-04-10T11:48:33.665Z,8.50
2023-04-10T11:51:09.468Z,8.45
2023-04-10T11:53:43.212Z,9.77
2023-04-10T11:56:22.608Z,7.97
2023-04-10T11:58:54.895Z,7.45
2023-04-10T12:01:24.788Z,6.82
2023-04-10T12:03:55.265Z,8.43
2023-04-10T12:06:25.952Z,10.05
2023-04-10T12:09:01.723Z,8.30
2023-04-10T12:11:35.361Z,5.70
2023-04-10T12:14:03.878Z,6.43
2023-04-10T12:16:33.726Z,7.03
2023-04-10T12:19:01.764Z,6.80
2023-04-10T12:21:31.205Z,7.68
2023-04-10T12:23:59.259Z,6.10
2023-04-10T12:26:27.343Z,8.48
2023-04-10T12:28:59.021Z,7.03
2023-04-10T12:31:31.318Z,5.68
2023-04-10T12:34:01.170Z,7.75
2023-04-10T12:36:30.561Z,6.25
2023-04-10T12:38:59.233Z,6.93
2023-04-10T12:41:29.673Z,7.37
2023-04-10T12:44:10.874Z,7.22
2023-04-10T12:46:41.752Z,6.90
2023-04-10T12:49:12.095Z,6.53
2023-04-10T12:51:47.136Z,6.80
2023-04-10T12:54:32.154Z,6.00
2023-04-10T12:57:01.506Z,6.57
2023-04-10T12:59:31.907Z,8.00
2023-04-10T13:02:00.135Z,5.90
2023-04-10T13:04:31.308Z,6.72
2023-04-10T13:07:02.808Z,6.50
2023-04-10T13:09:31.224Z,7.95
2023-04-10T13:11:59.305Z,7.03
2023-04-10T13:14:27.508Z,6.25
2023-04-10T13:16:57.090Z,7.22
2023-04-10T13:19:25.078Z,5.62
2023-04-10T13:21:53.054Z,6.15
2023-04-10T13:24:21.345Z,7.25
2023-04-10T13:26:49.235Z,7.25
2023-04-10T13:29:17.226Z,5.28
2023-04-10T13:31:45.601Z,5.28
2023-04-10T13:34:14.911Z,6.25
2023-04-10T13:36:43.099Z,6.45
2023-04-10T13:39:11.472Z,4.95
2023-04-10T13:41:39.501Z,6.37
2023-04-10T13:44:09.177Z,6.30
2023-04-10T13:46:37.522Z,5.82
2023-04-10T13:49:05.510Z,5.22
2023-04-10T13:51:34.779Z,6.72
2023-04-10T13:54:04.698Z,6.28
2023-04-10T13:56:32.582Z,6.10
2023-04-10T13:59:00.574Z,10.10
2023-04-10T14:01:28.768Z,5.68
2023-04-10T14:03:57.283Z,6.15
2023-04-10T14:06:25.356Z,5.43
2023-04-10T14:08:54.855Z,6.53
2023-04-10T14:11:23.247Z,5.43
2023-04-10T14:13:51.273Z,4.70
2023-04-10T14:16:19.389Z,5.37
2023-04-10T14:18:47.882Z,4.80
2023-04-10T14:21:15.765Z,4.90
2023-04-10T14:23:46.711Z,6.90
2023-04-10T14:26:16.321Z,4.80
2023-04-10T14:28:44.236Z,6.22
2023-04-10T14:31:12.507Z,3.60
2023-04-10T14:33:40.780Z,4.62
2023-04-10T14:36:09.449Z,4.40
2023-04-10T14:38:37.729Z,7.15
2023-04-10T14:41:06.385Z,5.47
2023-04-10T14:43:35.726Z,3.53
2023-04-10T14:46:03.654Z,5.47
2023-04-10T14:48:32.034Z,7.72
2023-04-10T14:51:01.328Z,4.60
2023-04-10T14:53:29.334Z,5.37
2023-04-10T14:55:57.741Z,4.32
2023-04-10T14:58:25.972Z,4.37
2023-04-10T15:00:55.404Z,5.07
2023-04-10T15:03:25.328Z,4.25
2023-04-10T15:06:00.227Z,5.68
2023-04-10T15:08:28.516Z,6.60
2023-04-10T15:10:56.503Z,4.75
2023-04-10T15:13:24.698Z,4.20
2023-04-10T15:15:52.959Z,4.45
2023-04-10T15:18:22.297Z,4.70
2023-04-10T15:20:52.508Z,4.10
2023-04-10T15:23:20.728Z,4.25
2023-04-10T15:25:48.784Z,5.25
2023-04-10T15:28:16.825Z,5.00
2023-04-10T15:30:45.694Z,4.85
2023-04-10T15:33:13.668Z,5.10
2023-04-10T15:35:42.942Z,4.00
2023-04-10T15:38:12.822Z,4.10
2023-04-10T15:40:40.782Z,3.90
2023-04-10T15:43:08.767Z,4.50
2023-04-10T15:45:37.366Z,6.05
2023-04-10T15:48:06.060Z,4.70
2023-04-10T15:50:35.082Z,4.55
2023-04-10T15:53:04.821Z,3.28
2023-04-10T15:55:33.048Z,5.28
2023-04-10T15:58:02.562Z,4.78
2023-04-10T16:00:31.077Z,3.17
2023-04-10T16:02:59.575Z,3.60
2023-04-10T16:05:27.913Z,4.18
2023-04-10T16:07:56.143Z,3.35
2023-04-10T16:10:25.676Z,4.97
2023-04-10T16:12:53.862Z,4.55
2023-04-10T16:15:21.846Z,3.08
2023-04-10T16:17:50.158Z,3.25
2023-04-10T16:20:18.976Z,3.42
2023-04-10T16:22:47.086Z,4.15
2023-04-10T16:25:16.933Z,4.07
2023-04-10T16:27:47.257Z,4.12
2023-04-10T16:30:15.761Z,4.72
2023-04-10T16:32:43.776Z,5.15
2023-04-10T16:35:11.866Z,4.22
2023-04-10T16:37:40.362Z,5.97
2023-04-10T16:40:09.316Z,3.83
2023-04-10T16:42:37.414Z,3.78
2023-04-10T16:45:08.400Z,3.67
2023-04-10T16:47:36.587Z,3.08
2023-04-10T16:50:04.924Z,3.12
2023-04-10T16:52:33.275Z,3.37
2023-04-10T16:55:01.509Z,4.45
2023-04-10T16:57:32.060Z,5.32
2023-04-10T17:00:00.501Z,4.12
2023-04-10T17:02:30.398Z,4.75
2023-04-10T17:04:58.580Z,5.37
2023-04-10T17:07:26.851Z,5.00
2023-04-10T17:09:54.820Z,6.12
2023-04-10T17:12:22.843Z,4.95
2023-04-10T17:14:52.390Z,3.33
2023-04-10T17:17:20.533Z,3.40
2023-04-10T17:19:50.325Z,4.65
2023-04-10T17:22:20.571Z,4.37
2023-04-10T17:24:48.545Z,4.45
2023-04-10T17:27:18.893Z,3.53
2023-04-10T17:29:47.165Z,3.90
2023-04-10T17:32:15.077Z,4.45
2023-04-10T17:34:43.012Z,3.87
2023-04-10T17:37:12.600Z,4.10
2023-04-10T17:39:40.513Z,4.62
2023-04-10T17:42:08.506Z,4.25
2023-04-10T17:44:36.705Z,5.87
2023-04-10T17:47:05.193Z,3.65
2023-04-10T17:49:33.174Z,4.37
2023-04-10T17:52:01.377Z,3.42
2023-04-10T17:54:30.682Z,6.40
2023-04-10T17:56:58.676Z,3.67
2023-04-10T17:59:26.855Z,3.97
2023-04-10T18:01:55.014Z,5.90
2023-04-10T18:04:23.335Z,4.82
2023-04-10T18:06:51.300Z,4.43
2023-04-10T18:09:19.460Z,4.60
2023-04-10T18:11:50.741Z,5.07
2023-04-10T18:14:18.655Z,5.87
2023-04-10T18:16:46.703Z,3.85
2023-04-10T18:19:14.977Z,3.65
2023-04-10T18:21:42.990Z,4.35
2023-04-10T18:24:12.137Z,5.25
2023-04-10T18:26:40.631Z,4.28
2023-04-10T18:29:09.955Z,3.60
2023-04-10T18:31:37.912Z,7.50
2023-04-10T18:34:08.389Z,5.20
2023-04-10T18:36:36.896Z,4.37
2023-04-10T18:39:05.305Z,4.62
2023-04-10T18:41:36.988Z,5.53
2023-04-10T18:44:05.985Z,6.20
2023-04-10T18:46:35.895Z,5.95
2023-04-10T18:49:04.135Z,5.05
2023-04-10T18:51:34.625Z,3.62
2023-04-10T18:54:03.620Z,5.70
2023-04-10T18:56:31.744Z,4.32
2023-04-10T18:59:00.025Z,6.18
2023-04-10T19:01:28.983Z,4.85
2023-04-10T19:03:58.907Z,3.90
2023-04-10T19:06:27.888Z,4.50
2023-04-10T19:08:56.732Z,5.65
2023-04-10T19:11:24.874Z,3.87
2023-04-10T19:13:53.258Z,5.43
2023-04-10T19:16:21.738Z,4.70
2023-04-10T19:18:50.209Z,4.90
2023-04-10T19:21:19.612Z,6.50
2023-04-10T19:23:47.928Z,5.07
2023-04-10T19:26:16.015Z,4.10
2023-04-10T19:28:43.977Z,6.43
2023-04-10T19:31:12.974Z,5.82
2023-04-10T19:33:41.309Z,5.40
2023-04-10T19:36:09.776Z,6.62
2023-04-10T19:38:40.961Z,5.28
2023-04-10T19:41:15.790Z,5.53
2023-04-10T19:43:44.108Z,5.70
2023-04-10T19:46:19.221Z,6.03
2023-04-10T19:48:48.021Z,6.65
2023-04-10T19:51:16.092Z,4.65
2023-04-10T19:53:45.510Z,4.47
2023-04-10T19:56:13.692Z,4.55
2023-04-10T19:58:42.895Z,6.22
2023-04-10T20:01:12.334Z,4.90
2023-04-10T20:03:40.914Z,3.97
2023-04-10T20:06:10.165Z,4.93
2023-04-10T20:08:38.263Z,4.65
2023-04-10T20:11:09.450Z,4.03
2023-04-10T20:13:38.572Z,4.57
2023-04-10T20:16:07.866Z,5.05
2023-04-10T20:18:37.794Z,6.25
2023-04-10T20:21:07.848Z,5.37
2023-04-10T20:23:36.214Z,6.43
2023-04-10T20:26:04.171Z,5.93
2023-04-10T20:28:33.439Z,4.05
2023-04-10T20:31:01.728Z,5.68
2023-04-10T20:33:29.821Z,5.50
2023-04-10T20:35:57.838Z,4.18
2023-04-10T20:38:26.051Z,4.30
2023-04-10T20:40:54.244Z,4.40
2023-04-10T20:43:22.227Z,4.10
2023-04-10T20:45:51.750Z,5.68
2023-04-10T20:48:19.731Z,5.75
2023-04-10T20:50:49.233Z,6.75
2023-04-10T20:53:17.522Z,4.55
2023-04-10T20:55:47.571Z,5.62
2023-04-10T20:58:15.478Z,5.30
2023-04-10T21:00:43.670Z,4.95
2023-04-10T21:03:13.101Z,6.72
2023-04-10T21:05:42.040Z,5.85
2023-04-10T21:08:10.865Z,5.25
2023-04-10T21:10:43.942Z,5.15
2023-04-10T21:13:14.081Z,4.90
2023-04-10T21:15:42.265Z,6.07
2023-04-10T21:18:11.572Z,6.07
2023-04-10T21:20:44.691Z,4.68
2023-04-10T21:23:12.743Z,4.80
2023-04-10T21:25:41.040Z,6.45
2023-04-10T21:28:09.038Z,6.32
2023-04-10T21:30:36.924Z,8.13
2023-04-10T21:33:05.342Z,5.07
2023-04-10T21:35:33.442Z,4.68
2023-04-10T21:38:02.866Z,7.07
2023-04-10T21:40:34.368Z,5.65
2023-04-10T21:43:02.749Z,5.03
2023-04-10T21:45:32.159Z,6.37
2023-04-10T21:48:00.776Z,7.35
2023-04-10T21:50:28.812Z,4.37
2023-04-10T21:52:56.840Z,5.80
2023-04-10T21:55:26.527Z,8.27
2023-04-10T21:57:54.468Z,6.87
2023-04-10T22:00:23.193Z,5.90
2023-04-10T22:02:53.006Z,5.10
2023-04-10T22:05:24.721Z,5.15
2023-04-10T22:07:53.175Z,4.55
2023-04-10T22:10:21.205Z,3.62
2023-04-10T22:12:50.621Z,4.93
2023-04-10T22:15:19.815Z,4.22
2023-04-10T22:17:47.832Z,4.20
2023-04-10T22:20:15.891Z,7.90
2023-04-10T22:22:44.175Z,4.32
2023-04-10T22:25:12.085Z,5.62
2023-04-10T22:27:40.080Z,4.85
2023-04-10T22:30:10.921Z,5.95
2023-04-10T22:32:38.919Z,4.32
2023-04-10T22:35:08.291Z,4.40
2023-04-10T22:37:36.553Z,6.68
2023-04-10T22:40:05.911Z,5.15
2023-04-10T22:42:33.865Z,3.95
2023-04-10T22:45:02.153Z,4.93
2023-04-10T22:47:33.829Z,4.53
2023-04-10T22:50:02.143Z,5.00
2023-04-10T22:52:30.112Z,4.15
2023-04-10T22:54:58.292Z,4.45
2023-04-10T22:57:26.575Z,6.82
2023-04-10T22:59:54.731Z,4.70
2023-04-10T23:02:22.701Z,5.10
2023-04-10T23:04:52.274Z,5.03
2023-04-10T23:07:20.245Z,7.45
2023-04-10T23:09:48.140Z,4.78
2023-04-10T23:12:16.336Z,3.60
2023-04-10T23:14:44.278Z,6.40
2023-04-10T23:17:12.196Z,5.93
2023-04-10T23:19:40.458Z,4.82
2023-04-10T23:22:09.752Z,6.20
2023-04-10T23:24:38.690Z,3.95
2023-04-10T23:27:07.828Z,4.47
2023-04-10T23:29:35.860Z,4.78
2023-04-10T23:32:03.857Z,5.43
2023-04-10T23:34:32.066Z,5.10
2023-04-10T23:37:00.027Z,5.82
2023-04-10T23:39:29.315Z,7.87
2023-04-10T23:41:57.751Z,4.85
2023-04-10T23:44:25.823Z,5.18
2023-04-10T23:46:53.826Z,6.35
2023-04-10T23:49:22.090Z,5.10
2023-04-10T23:51:50.057Z,4.87
2023-04-10T23:54:18.030Z,5.97
2023-04-10T23:56:47.645Z,4.40
2023-04-10T23:59:17.014Z,4.45
